Terminal Aerodrome Forecast
Issued by NWS

Home | Current Version | Previous Version | Text Only | Print | Product List | Glossary On
Versions: 1 2 3 4 5 6 7 8 9 10 11 12 13 14 15 16 17 18 19 20 21 22 23 24 25 26 27 28
000
FTUS41 KBUF 250900 AAB
TAFJHW
TAF AMD
KJHW 250913Z 2509/2606 22004KT P6SM BKN035
      TEMPO 2510/2513 BKN025
     FM251300 23008KT P6SM SCT025 BKN035
     FM251700 24016G24KT P6SM SCT015 BKN025
     FM252000 26016G27KT P6SM VCSH SCT015 BKN025
     FM260000 27013KT P6SM BKN250
     FM260400 28015KT P6SM SCT040
      AMD LTD TO CLD VIS AND WIND=

USA.gov is the U.S. government's official web portal to all federal, state and local government web resources and services.